sensor_id;sensor_type;location;lat;lon;timestamp;temperature;humidity
5457;DHT22;2751;49.802;9.944;2022-07-09T00:00:29;18.90;1.00
5457;DHT22;2751;49.802;9.944;2022-07-09T00:02:56;18.80;1.00
5457;DHT22;2751;49.802;9.944;2022-07-09T00:05:23;18.80;1.00
5457;DHT22;2751;49.802;9.944;2022-07-09T00:07:52;18.70;1.00
5457;DHT22;2751;49.802;9.944;2022-07-09T00:10:19;18.70;1.00
5457;DHT22;2751;49.802;9.944;2022-07-09T00:12:46;18.70;1.00
5457;DHT22;2751;49.802;9.944;2022-07-09T00:15:13;18.50;1.00
5457;DHT22;2751;49.802;9.944;2022-07-09T00:17:40;18.50;1.00
5457;DHT22;2751;49.802;9.944;2022-07-09T00:20:08;18.50;1.00
5457;DHT22;2751;49.802;9.944;2022-07-09T00:22:35;18.40;1.00
5457;DHT22;2751;49.802;9.944;2022-07-09T00:25:04;18.40;90.60
5457;DHT22;2751;49.802;9.944;2022-07-09T00:27:31;18.30;1.00
5457;DHT22;2751;49.802;9.944;2022-07-09T00:29:58;18.30;1.00
5457;DHT22;2751;49.802;9.944;2022-07-09T00:32:25;18.20;26.10
5457;DHT22;2751;49.802;9.944;2022-07-09T00:34:52;18.20;1.00
5457;DHT22;2751;49.802;9.944;2022-07-09T00:37:19;18.10;1.00
5457;DHT22;2751;49.802;9.944;2022-07-09T00:39:46;18.10;99.90
5457;DHT22;2751;49.802;9.944;2022-07-09T00:42:14;18.00;1.00
5457;DHT22;2751;49.802;9.944;2022-07-09T00:44:41;18.00;25.20
5457;DHT22;2751;49.802;9.944;2022-07-09T00:47:08;18.00;88.40
5457;DHT22;2751;49.802;9.944;2022-07-09T00:49:38;17.90;99.90
5457;DHT22;2751;49.802;9.944;2022-07-09T00:52:07;17.90;99.90
5457;DHT22;2751;49.802;9.944;2022-07-09T00:54:34;17.90;99.90
5457;DHT22;2751;49.802;9.944;2022-07-09T00:57:04;17.80;99.90
5457;DHT22;2751;49.802;9.944;2022-07-09T00:59:34;17.80;99.90
5457;DHT22;2751;49.802;9.944;2022-07-09T01:02:02;17.80;99.90
5457;DHT22;2751;49.802;9.944;2022-07-09T01:04:29;17.80;99.90
5457;DHT22;2751;49.802;9.944;2022-07-09T01:06:56;17.80;99.90
5457;DHT22;2751;49.802;9.944;2022-07-09T01:09:24;17.80;99.90
5457;DHT22;2751;49.802;9.944;2022-07-09T01:11:51;17.80;99.90
5457;DHT22;2751;49.802;9.944;2022-07-09T01:14:18;17.70;99.90
5457;DHT22;2751;49.802;9.944;2022-07-09T01:16:47;17.80;99.90
5457;DHT22;2751;49.802;9.944;2022-07-09T01:19:13;17.70;99.90
5457;DHT22;2751;49.802;9.944;2022-07-09T01:21:42;17.60;99.90
5457;DHT22;2751;49.802;9.944;2022-07-09T01:24:09;17.60;99.90
5457;DHT22;2751;49.802;9.944;2022-07-09T01:26:35;17.50;99.90
5457;DHT22;2751;49.802;9.944;2022-07-09T01:29:02;17.50;99.90
5457;DHT22;2751;49.802;9.944;2022-07-09T01:31:29;17.50;99.90
5457;DHT22;2751;49.802;9.944;2022-07-09T01:33:56;17.50;99.90
5457;DHT22;2751;49.802;9.944;2022-07-09T01:36:23;17.50;99.90
5457;DHT22;2751;49.802;9.944;2022-07-09T01:38:51;17.50;99.90
5457;DHT22;2751;49.802;9.944;2022-07-09T01:41:18;17.50;99.90
5457;DHT22;2751;49.802;9.944;2022-07-09T01:43:45;17.50;99.90
5457;DHT22;2751;49.802;9.944;2022-07-09T01:46:12;17.40;99.90
5457;DHT22;2751;49.802;9.944;2022-07-09T01:48:39;17.40;99.90
5457;DHT22;2751;49.802;9.944;2022-07-09T01:51:07;17.30;99.90
5457;DHT22;2751;49.802;9.944;2022-07-09T01:53:34;17.30;99.90
5457;DHT22;2751;49.802;9.944;2022-07-09T01:56:05;17.30;99.90
5457;DHT22;2751;49.802;9.944;2022-07-09T01:58:33;17.20;99.90
5457;DHT22;2751;49.802;9.944;2022-07-09T02:01:00;17.10;99.90
5457;DHT22;2751;49.802;9.944;2022-07-09T02:03:27;17.10;99.90
5457;DHT22;2751;49.802;9.944;2022-07-09T02:05:54;17.00;99.90
5457;DHT22;2751;49.802;9.944;2022-07-09T02:08:21;17.00;99.90
5457;DHT22;2751;49.802;9.944;2022-07-09T02:10:48;16.90;99.90
5457;DHT22;2751;49.802;9.944;2022-07-09T02:13:17;16.90;99.90
5457;DHT22;2751;49.802;9.944;2022-07-09T02:15:45;16.90;99.90
5457;DHT22;2751;49.802;9.944;2022-07-09T02:18:13;16.80;99.90
5457;DHT22;2751;49.802;9.944;2022-07-09T02:20:39;16.80;99.90
5457;DHT22;2751;49.802;9.944;2022-07-09T02:23:07;16.80;99.90
5457;DHT22;2751;49.802;9.944;2022-07-09T02:25:34;16.70;99.90
5457;DHT22;2751;49.802;9.944;2022-07-09T02:28:01;16.70;99.90
5457;DHT22;2751;49.802;9.944;2022-07-09T02:30:29;16.70;99.90
5457;DHT22;2751;49.802;9.944;2022-07-09T02:32:56;16.70;99.90
5457;DHT22;2751;49.802;9.944;2022-07-09T02:35:23;16.70;99.90
5457;DHT22;2751;49.802;9.944;2022-07-09T02:37:50;16.70;99.90
5457;DHT22;2751;49.802;9.944;2022-07-09T02:40:16;16.80;99.90
5457;DHT22;2751;49.802;9.944;2022-07-09T02:42:43;16.80;99.90
5457;DHT22;2751;49.802;9.944;2022-07-09T02:45:10;16.80;99.90
5457;DHT22;2751;49.802;9.944;2022-07-09T02:47:38;16.80;99.90
5457;DHT22;2751;49.802;9.944;2022-07-09T02:50:06;16.80;99.90
5457;DHT22;2751;49.802;9.944;2022-07-09T02:52:33;16.80;99.90
5457;DHT22;2751;49.802;9.944;2022-07-09T02:55:00;16.80;99.90
5457;DHT22;2751;49.802;9.944;2022-07-09T02:57:27;16.80;99.90
5457;DHT22;2751;49.802;9.944;2022-07-09T02:59:54;16.70;99.90
5457;DHT22;2751;49.802;9.944;2022-07-09T03:02:21;16.70;99.90
5457;DHT22;2751;49.802;9.944;2022-07-09T03:04:49;16.60;99.90
5457;DHT22;2751;49.802;9.944;2022-07-09T03:07:16;16.50;99.90
5457;DHT22;2751;49.802;9.944;2022-07-09T03:09:43;16.50;99.90
5457;DHT22;2751;49.802;9.944;2022-07-09T03:12:10;16.40;99.90
5457;DHT22;2751;49.802;9.944;2022-07-09T03:14:37;16.40;99.90
5457;DHT22;2751;49.802;9.944;2022-07-09T03:17:04;16.40;99.90
5457;DHT22;2751;49.802;9.944;2022-07-09T03:19:31;16.30;99.90
5457;DHT22;2751;49.802;9.944;2022-07-09T03:22:00;16.40;99.90
5457;DHT22;2751;49.802;9.944;2022-07-09T03:24:26;16.40;99.90
5457;DHT22;2751;49.802;9.944;2022-07-09T03:26:53;16.40;99.90
5457;DHT22;2751;49.802;9.944;2022-07-09T03:29:20;16.40;99.90
5457;DHT22;2751;49.802;9.944;2022-07-09T03:31:48;16.50;99.90
5457;DHT22;2751;49.802;9.944;2022-07-09T03:34:14;16.50;99.90
5457;DHT22;2751;49.802;9.944;2022-07-09T03:36:42;16.50;99.90
5457;DHT22;2751;49.802;9.944;2022-07-09T03:39:10;16.40;99.90
5457;DHT22;2751;49.802;9.944;2022-07-09T03:41:37;16.50;99.90
5457;DHT22;2751;49.802;9.944;2022-07-09T03:44:04;16.60;99.90
5457;DHT22;2751;49.802;9.944;2022-07-09T03:46:31;16.60;99.90
5457;DHT22;2751;49.802;9.944;2022-07-09T03:48:58;16.60;99.90
5457;DHT22;2751;49.802;9.944;2022-07-09T03:51:25;16.60;99.90
5457;DHT22;2751;49.802;9.944;2022-07-09T03:53:52;16.50;99.90
5457;DHT22;2751;49.802;9.944;2022-07-09T03:56:20;16.50;99.90
5457;DHT22;2751;49.802;9.944;2022-07-09T03:58:47;16.50;99.90
5457;DHT22;2751;49.802;9.944;2022-07-09T04:01:14;16.50;99.90
5457;DHT22;2751;49.802;9.944;2022-07-09T04:03:41;16.50;99.90
5457;DHT22;2751;49.802;9.944;2022-07-09T04:06:08;16.50;99.90
5457;DHT22;2751;49.802;9.944;2022-07-09T04:08:35;16.50;99.90
5457;DHT22;2751;49.802;9.944;2022-07-09T04:11:02;16.50;99.90
5457;DHT22;2751;49.802;9.944;2022-07-09T04:13:33;16.50;99.90
5457;DHT22;2751;49.802;9.944;2022-07-09T04:16:00;16.50;99.90
5457;DHT22;2751;49.802;9.944;2022-07-09T04:18:27;16.40;99.90
5457;DHT22;2751;49.802;9.944;2022-07-09T04:20:53;16.50;99.90
5457;DHT22;2751;49.802;9.944;2022-07-09T04:23:22;16.50;99.90
5457;DHT22;2751;49.802;9.944;2022-07-09T04:25:49;16.50;99.90
5457;DHT22;2751;49.802;9.944;2022-07-09T04:28:16;16.50;99.90
5457;DHT22;2751;49.802;9.944;2022-07-09T04:30:45;16.50;99.90
5457;DHT22;2751;49.802;9.944;2022-07-09T04:33:13;16.50;99.90
5457;DHT22;2751;49.802;9.944;2022-07-09T04:35:39;16.50;99.90
5457;DHT22;2751;49.802;9.944;2022-07-09T04:38:06;16.50;99.90
5457;DHT22;2751;49.802;9.944;2022-07-09T04:40:33;16.50;99.90
5457;DHT22;2751;49.802;9.944;2022-07-09T04:43:00;16.60;99.90
5457;DHT22;2751;49.802;9.944;2022-07-09T04:45:27;16.50;99.90
5457;DHT22;2751;49.802;9.944;2022-07-09T04:47:57;16.60;99.90
5457;DHT22;2751;49.802;9.944;2022-07-09T04:50:25;16.70;99.90
5457;DHT22;2751;49.802;9.944;2022-07-09T04:52:52;16.60;99.90
5457;DHT22;2751;49.802;9.944;2022-07-09T04:55:19;16.70;99.90
5457;DHT22;2751;49.802;9.944;2022-07-09T04:57:47;16.70;99.90
5457;DHT22;2751;49.802;9.944;2022-07-09T05:00:14;16.70;99.90
5457;DHT22;2751;49.802;9.944;2022-07-09T05:02:42;16.70;99.90
5457;DHT22;2751;49.802;9.944;2022-07-09T05:05:12;16.80;99.90
5457;DHT22;2751;49.802;9.944;2022-07-09T05:07:39;16.80;99.90
5457;DHT22;2751;49.802;9.944;2022-07-09T05:10:07;17.00;99.90
5457;DHT22;2751;49.802;9.944;2022-07-09T05:12:34;17.10;99.90
5457;DHT22;2751;49.802;9.944;2022-07-09T05:15:02;17.10;99.90
5457;DHT22;2751;49.802;9.944;2022-07-09T05:17:33;17.20;99.90
5457;DHT22;2751;49.802;9.944;2022-07-09T05:20:01;17.30;99.90
5457;DHT22;2751;49.802;9.944;2022-07-09T05:22:30;17.30;99.90
5457;DHT22;2751;49.802;9.944;2022-07-09T05:24:57;17.50;99.90
5457;DHT22;2751;49.802;9.944;2022-07-09T05:27:25;17.50;99.90
5457;DHT22;2751;49.802;9.944;2022-07-09T05:29:52;17.50;99.90
5457;DHT22;2751;49.802;9.944;2022-07-09T05:32:19;17.60;99.90
5457;DHT22;2751;49.802;9.944;2022-07-09T05:34:46;17.70;99.90
5457;DHT22;2751;49.802;9.944;2022-07-09T05:37:13;17.70;99.90
5457;DHT22;2751;49.802;9.944;2022-07-09T05:39:42;17.80;99.90
5457;DHT22;2751;49.802;9.944;2022-07-09T05:42:09;17.80;99.90
5457;DHT22;2751;49.802;9.944;2022-07-09T05:44:36;17.80;99.90
5457;DHT22;2751;49.802;9.944;2022-07-09T05:47:03;17.80;99.90
5457;DHT22;2751;49.802;9.944;2022-07-09T05:49:30;17.90;99.90
5457;DHT22;2751;49.802;9.944;2022-07-09T05:51:57;18.00;99.90
5457;DHT22;2751;49.802;9.944;2022-07-09T05:54:24;18.10;99.90
5457;DHT22;2751;49.802;9.944;2022-07-09T05:56:52;18.10;99.90
5457;DHT22;2751;49.802;9.944;2022-07-09T05:59:19;18.30;99.90
5457;DHT22;2751;49.802;9.944;2022-07-09T06:01:46;18.50;99.90
5457;DHT22;2751;49.802;9.944;2022-07-09T06:04:13;18.60;99.90
5457;DHT22;2751;49.802;9.944;2022-07-09T06:06:40;18.80;99.90
5457;DHT22;2751;49.802;9.944;2022-07-09T06:09:07;18.90;99.90
5457;DHT22;2751;49.802;9.944;2022-07-09T06:11:35;19.00;99.90
5457;DHT22;2751;49.802;9.944;2022-07-09T06:14:03;19.20;99.90
5457;DHT22;2751;49.802;9.944;2022-07-09T06:16:30;19.20;99.90
5457;DHT22;2751;49.802;9.944;2022-07-09T06:18:57;19.40;99.90
5457;DHT22;2751;49.802;9.944;2022-07-09T06:21:24;19.30;99.90
5457;DHT22;2751;49.802;9.944;2022-07-09T06:23:51;19.40;99.90
5457;DHT22;2751;49.802;9.944;2022-07-09T06:26:18;19.70;99.90
5457;DHT22;2751;49.802;9.944;2022-07-09T06:28:45;20.00;99.90
5457;DHT22;2751;49.802;9.944;2022-07-09T06:31:15;20.20;99.90
5457;DHT22;2751;49.802;9.944;2022-07-09T06:33:42;20.50;99.90
5457;DHT22;2751;49.802;9.944;2022-07-09T06:36:09;20.50;99.90
5457;DHT22;2751;49.802;9.944;2022-07-09T06:38:36;20.50;99.90
5457;DHT22;2751;49.802;9.944;2022-07-09T06:41:23;20.60;99.90
5457;DHT22;2751;49.802;9.944;2022-07-09T06:43:50;20.80;99.90
5457;DHT22;2751;49.802;9.944;2022-07-09T06:46:18;20.90;99.90
5457;DHT22;2751;49.802;9.944;2022-07-09T06:48:45;21.00;99.90
5457;DHT22;2751;49.802;9.944;2022-07-09T06:51:12;21.20;99.90
5457;DHT22;2751;49.802;9.944;2022-07-09T06:53:39;21.20;99.90
5457;DHT22;2751;49.802;9.944;2022-07-09T06:56:06;20.90;99.90
5457;DHT22;2751;49.802;9.944;2022-07-09T06:58:33;21.00;99.90
5457;DHT22;2751;49.802;9.944;2022-07-09T07:01:00;21.10;99.90
5457;DHT22;2751;49.802;9.944;2022-07-09T07:03:28;21.20;99.90
5457;DHT22;2751;49.802;9.944;2022-07-09T07:05:55;21.40;99.90
5457;DHT22;2751;49.802;9.944;2022-07-09T07:08:22;21.50;99.90
5457;DHT22;2751;49.802;9.944;2022-07-09T07:10:49;21.90;99.90
5457;DHT22;2751;49.802;9.944;2022-07-09T07:13:15;22.10;99.90
5457;DHT22;2751;49.802;9.944;2022-07-09T07:15:42;22.20;99.90
5457;DHT22;2751;49.802;9.944;2022-07-09T07:18:14;22.20;99.90
5457;DHT22;2751;49.802;9.944;2022-07-09T07:20:42;22.20;99.90
5457;DHT22;2751;49.802;9.944;2022-07-09T07:23:09;22.40;99.90
5457;DHT22;2751;49.802;9.944;2022-07-09T07:25:36;22.30;99.90
5457;DHT22;2751;49.802;9.944;2022-07-09T07:28:03;22.30;99.90
5457;DHT22;2751;49.802;9.944;2022-07-09T07:30:31;22.30;99.90
5457;DHT22;2751;49.802;9.944;2022-07-09T07:32:58;22.30;99.90
5457;DHT22;2751;49.802;9.944;2022-07-09T07:35:25;22.50;99.90
5457;DHT22;2751;49.802;9.944;2022-07-09T07:37:53;22.50;99.90
5457;DHT22;2751;49.802;9.944;2022-07-09T07:40:21;22.70;99.90
5457;DHT22;2751;49.802;9.944;2022-07-09T07:42:48;22.80;99.90
5457;DHT22;2751;49.802;9.944;2022-07-09T07:45:14;22.80;99.90
5457;DHT22;2751;49.802;9.944;2022-07-09T07:47:41;22.60;99.90
5457;DHT22;2751;49.802;9.944;2022-07-09T07:50:09;22.50;99.90
5457;DHT22;2751;49.802;9.944;2022-07-09T07:52:35;22.50;99.90
5457;DHT22;2751;49.802;9.944;2022-07-09T07:55:05;22.50;99.90
5457;DHT22;2751;49.802;9.944;2022-07-09T07:57:32;22.40;99.90
5457;DHT22;2751;49.802;9.944;2022-07-09T07:59:59;22.50;99.90
5457;DHT22;2751;49.802;9.944;2022-07-09T08:02:26;22.50;99.90
5457;DHT22;2751;49.802;9.944;2022-07-09T08:04:53;22.70;99.90
5457;DHT22;2751;49.802;9.944;2022-07-09T08:07:20;22.70;99.90
5457;DHT22;2751;49.802;9.944;2022-07-09T08:09:46;22.70;99.90
5457;DHT22;2751;49.802;9.944;2022-07-09T08:12:15;23.00;99.90
5457;DHT22;2751;49.802;9.944;2022-07-09T08:14:42;23.20;99.90
5457;DHT22;2751;49.802;9.944;2022-07-09T08:17:08;23.20;99.90
5457;DHT22;2751;49.802;9.944;2022-07-09T08:19:35;23.40;99.90
5457;DHT22;2751;49.802;9.944;2022-07-09T08:22:03;23.70;99.90
5457;DHT22;2751;49.802;9.944;2022-07-09T08:24:30;24.00;99.90
5457;DHT22;2751;49.802;9.944;2022-07-09T08:26:57;24.30;99.90
5457;DHT22;2751;49.802;9.944;2022-07-09T08:29:26;24.20;99.90
5457;DHT22;2751;49.802;9.944;2022-07-09T08:31:53;24.20;99.90
5457;DHT22;2751;49.802;9.944;2022-07-09T08:34:19;23.80;99.90
5457;DHT22;2751;49.802;9.944;2022-07-09T08:36:47;24.00;99.90
5457;DHT22;2751;49.802;9.944;2022-07-09T08:39:14;24.20;99.90
5457;DHT22;2751;49.802;9.944;2022-07-09T08:41:41;24.50;99.90
5457;DHT22;2751;49.802;9.944;2022-07-09T08:44:11;24.50;99.90
5457;DHT22;2751;49.802;9.944;2022-07-09T08:46:39;24.30;99.90
5457;DHT22;2751;49.802;9.944;2022-07-09T08:49:06;23.80;99.90
5457;DHT22;2751;49.802;9.944;2022-07-09T08:51:35;23.60;99.90
5457;DHT22;2751;49.802;9.944;2022-07-09T08:54:02;23.60;99.90
5457;DHT22;2751;49.802;9.944;2022-07-09T08:56:30;23.40;99.90
5457;DHT22;2751;49.802;9.944;2022-07-09T08:58:57;23.50;99.90
5457;DHT22;2751;49.802;9.944;2022-07-09T09:01:25;23.50;99.90
5457;DHT22;2751;49.802;9.944;2022-07-09T09:03:54;23.70;99.90
5457;DHT22;2751;49.802;9.944;2022-07-09T09:06:22;24.10;99.90
5457;DHT22;2751;49.802;9.944;2022-07-09T09:08:53;24.60;99.90
5457;DHT22;2751;49.802;9.944;2022-07-09T09:11:22;25.60;98.20
5457;DHT22;2751;49.802;9.944;2022-07-09T09:13:50;26.40;95.60
5457;DHT22;2751;49.802;9.944;2022-07-09T09:16:18;27.00;93.10
5457;DHT22;2751;49.802;9.944;2022-07-09T09:18:48;27.20;91.90
5457;DHT22;2751;49.802;9.944;2022-07-09T09:21:19;26.40;90.50
5457;DHT22;2751;49.802;9.944;2022-07-09T09:23:47;25.50;90.60
5457;DHT22;2751;49.802;9.944;2022-07-09T09:26:16;25.10;91.10
5457;DHT22;2751;49.802;9.944;2022-07-09T09:28:51;25.00;90.70
5457;DHT22;2751;49.802;9.944;2022-07-09T09:31:22;24.40;90.70
5457;DHT22;2751;49.802;9.944;2022-07-09T09:33:50;24.20;90.80
5457;DHT22;2751;49.802;9.944;2022-07-09T09:36:35;23.70;91.80
5457;DHT22;2751;49.802;9.944;2022-07-09T09:39:14;23.50;92.10
5457;DHT22;2751;49.802;9.944;2022-07-09T09:41:42;23.40;92.70
5457;DHT22;2751;49.802;9.944;2022-07-09T09:44:11;23.40;92.40
5457;DHT22;2751;49.802;9.944;2022-07-09T09:46:39;23.50;92.20
5457;DHT22;2751;49.802;9.944;2022-07-09T09:49:07;24.00;91.90
5457;DHT22;2751;49.802;9.944;2022-07-09T09:51:38;24.30;91.20
5457;DHT22;2751;49.802;9.944;2022-07-09T09:54:08;24.00;91.80
5457;DHT22;2751;49.802;9.944;2022-07-09T09:56:35;23.80;92.40
5457;DHT22;2751;49.802;9.944;2022-07-09T09:59:02;24.00;93.20
5457;DHT22;2751;49.802;9.944;2022-07-09T10:01:29;24.40;92.90
5457;DHT22;2751;49.802;9.944;2022-07-09T10:03:56;25.50;92.00
5457;DHT22;2751;49.802;9.944;2022-07-09T10:06:24;26.50;90.00
5457;DHT22;2751;49.802;9.944;2022-07-09T10:08:54;26.60;89.70
5457;DHT22;2751;49.802;9.944;2022-07-09T10:11:21;28.80;84.10
5457;DHT22;2751;49.802;9.944;2022-07-09T10:13:53;28.00;83.10
5457;DHT22;2751;49.802;9.944;2022-07-09T10:16:32;27.60;80.70
5457;DHT22;2751;49.802;9.944;2022-07-09T10:18:59;27.60;82.40
5457;DHT22;2751;49.802;9.944;2022-07-09T10:21:37;27.40;81.10
5457;DHT22;2751;49.802;9.944;2022-07-09T10:24:08;26.60;82.70
5457;DHT22;2751;49.802;9.944;2022-07-09T10:26:44;26.00;84.10
5457;DHT22;2751;49.802;9.944;2022-07-09T10:29:28;25.00;87.50
5457;DHT22;2751;49.802;9.944;2022-07-09T10:31:56;24.70;89.40
5457;DHT22;2751;49.802;9.944;2022-07-09T10:34:55;24.60;90.10
5457;DHT22;2751;49.802;9.944;2022-07-09T10:37:35;24.50;89.50
5457;DHT22;2751;49.802;9.944;2022-07-09T10:40:14;24.50;90.10
5457;DHT22;2751;49.802;9.944;2022-07-09T10:42:43;24.60;90.00
5457;DHT22;2751;49.802;9.944;2022-07-09T10:45:21;24.90;90.00
5457;DHT22;2751;49.802;9.944;2022-07-09T10:47:52;24.90;89.10
5457;DHT22;2751;49.802;9.944;2022-07-09T10:50:19;25.60;88.00
5457;DHT22;2751;49.802;9.944;2022-07-09T10:52:46;26.00;86.30
5457;DHT22;2751;49.802;9.944;2022-07-09T10:55:17;26.20;85.50
5457;DHT22;2751;49.802;9.944;2022-07-09T10:57:44;26.30;84.80
5457;DHT22;2751;49.802;9.944;2022-07-09T11:00:14;26.40;83.80
5457;DHT22;2751;49.802;9.944;2022-07-09T11:02:51;28.10;80.60
5457;DHT22;2751;49.802;9.944;2022-07-09T11:05:21;28.00;78.60
5457;DHT22;2751;49.802;9.944;2022-07-09T11:08:00;29.50;75.60
5457;DHT22;2751;49.802;9.944;2022-07-09T11:10:29;29.90;72.10
5457;DHT22;2751;49.802;9.944;2022-07-09T11:12:57;28.40;74.20
5457;DHT22;2751;49.802;9.944;2022-07-09T11:15:27;28.30;74.20
5457;DHT22;2751;49.802;9.944;2022-07-09T11:17:57;27.50;76.20
5457;DHT22;2751;49.802;9.944;2022-07-09T11:20:25;27.90;77.30
5457;DHT22;2751;49.802;9.944;2022-07-09T11:22:52;30.70;69.20
5457;DHT22;2751;49.802;9.944;2022-07-09T11:25:22;32.20;1.00
5457;DHT22;2751;49.802;9.944;2022-07-09T11:27:51;32.50;1.00
5457;DHT22;2751;49.802;9.944;2022-07-09T11:30:18;33.80;1.00
5457;DHT22;2751;49.802;9.944;2022-07-09T11:32:45;34.60;1.00
5457;DHT22;2751;49.802;9.944;2022-07-09T11:35:28;34.50;1.00
5457;DHT22;2751;49.802;9.944;2022-07-09T11:37:57;35.70;1.00
5457;DHT22;2751;49.802;9.944;2022-07-09T11:40:24;36.40;1.00
5457;DHT22;2751;49.802;9.944;2022-07-09T11:42:53;35.70;1.00
5457;DHT22;2751;49.802;9.944;2022-07-09T11:45:21;35.00;1.00
5457;DHT22;2751;49.802;9.944;2022-07-09T11:47:48;34.10;1.00
5457;DHT22;2751;49.802;9.944;2022-07-09T11:50:17;34.90;1.00
5457;DHT22;2751;49.802;9.944;2022-07-09T11:52:46;34.30;1.00
5457;DHT22;2751;49.802;9.944;2022-07-09T11:55:15;33.30;1.00
5457;DHT22;2751;49.802;9.944;2022-07-09T11:57:53;31.30;1.00
5457;DHT22;2751;49.802;9.944;2022-07-09T12:00:22;30.40;1.00
5457;DHT22;2751;49.802;9.944;2022-07-09T12:02:50;29.50;1.00
5457;DHT22;2751;49.802;9.944;2022-07-09T12:05:25;30.70;1.00
5457;DHT22;2751;49.802;9.944;2022-07-09T12:07:52;30.60;1.00
5457;DHT22;2751;49.802;9.944;2022-07-09T12:10:26;31.00;1.00
5457;DHT22;2751;49.802;9.944;2022-07-09T12:12:55;31.80;1.00
5457;DHT22;2751;49.802;9.944;2022-07-09T12:15:22;32.50;1.00
5457;DHT22;2751;49.802;9.944;2022-07-09T12:17:55;32.50;1.00
5457;DHT22;2751;49.802;9.944;2022-07-09T12:20:29;30.80;1.00
5457;DHT22;2751;49.802;9.944;2022-07-09T12:22:56;31.60;1.00
5457;DHT22;2751;49.802;9.944;2022-07-09T12:25:24;32.50;1.00
5457;DHT22;2751;49.802;9.944;2022-07-09T12:27:51;33.60;1.00
5457;DHT22;2751;49.802;9.944;2022-07-09T12:30:19;33.70;1.00
5457;DHT22;2751;49.802;9.944;2022-07-09T12:32:47;35.70;1.00
5457;DHT22;2751;49.802;9.944;2022-07-09T12:35:14;35.30;1.00
5457;DHT22;2751;49.802;9.944;2022-07-09T12:37:41;32.10;1.00
5457;DHT22;2751;49.802;9.944;2022-07-09T12:40:09;30.00;1.00
5457;DHT22;2751;49.802;9.944;2022-07-09T12:42:37;29.00;1.00
5457;DHT22;2751;49.802;9.944;2022-07-09T12:45:05;27.90;1.00
5457;DHT22;2751;49.802;9.944;2022-07-09T12:47:33;27.20;1.00
5457;DHT22;2751;49.802;9.944;2022-07-09T12:50:00;26.50;1.00
5457;DHT22;2751;49.802;9.944;2022-07-09T12:52:30;26.10;1.00
5457;DHT22;2751;49.802;9.944;2022-07-09T12:54:58;25.80;99.90
5457;DHT22;2751;49.802;9.944;2022-07-09T12:57:34;26.10;1.00
5457;DHT22;2751;49.802;9.944;2022-07-09T13:00:20;27.20;1.00
5457;DHT22;2751;49.802;9.944;2022-07-09T13:02:49;28.30;1.00
5457;DHT22;2751;49.802;9.944;2022-07-09T13:05:16;29.00;1.00
5457;DHT22;2751;49.802;9.944;2022-07-09T13:07:43;28.50;1.00
5457;DHT22;2751;49.802;9.944;2022-07-09T13:10:10;27.80;1.00
5457;DHT22;2751;49.802;9.944;2022-07-09T13:12:37;27.40;1.00
5457;DHT22;2751;49.802;9.944;2022-07-09T13:15:04;27.00;1.00
5457;DHT22;2751;49.802;9.944;2022-07-09T13:17:31;26.70;1.00
5457;DHT22;2751;49.802;9.944;2022-07-09T13:20:00;26.60;1.00
5457;DHT22;2751;49.802;9.944;2022-07-09T13:22:28;26.60;1.00
5457;DHT22;2751;49.802;9.944;2022-07-09T13:24:55;27.10;1.00
5457;DHT22;2751;49.802;9.944;2022-07-09T13:27:22;27.40;1.00
5457;DHT22;2751;49.802;9.944;2022-07-09T13:29:49;27.60;1.00
5457;DHT22;2751;49.802;9.944;2022-07-09T13:32:16;27.30;1.00
5457;DHT22;2751;49.802;9.944;2022-07-09T13:34:43;27.00;1.00
5457;DHT22;2751;49.802;9.944;2022-07-09T13:37:11;26.70;1.00
5457;DHT22;2751;49.802;9.944;2022-07-09T13:39:38;26.90;1.00
5457;DHT22;2751;49.802;9.944;2022-07-09T13:42:05;26.70;1.00
5457;DHT22;2751;49.802;9.944;2022-07-09T13:44:32;26.60;1.00
5457;DHT22;2751;49.802;9.944;2022-07-09T13:46:59;26.80;1.00
5457;DHT22;2751;49.802;9.944;2022-07-09T13:49:26;27.10;1.00
5457;DHT22;2751;49.802;9.944;2022-07-09T13:51:53;26.90;1.00
5457;DHT22;2751;49.802;9.944;2022-07-09T13:54:22;27.20;1.00
5457;DHT22;2751;49.802;9.944;2022-07-09T13:56:49;27.00;1.00
5457;DHT22;2751;49.802;9.944;2022-07-09T13:59:16;27.20;1.00
5457;DHT22;2751;49.802;9.944;2022-07-09T14:01:42;27.30;1.00
5457;DHT22;2751;49.802;9.944;2022-07-09T14:04:09;27.40;1.00
5457;DHT22;2751;49.802;9.944;2022-07-09T14:06:36;27.40;1.00
5457;DHT22;2751;49.802;9.944;2022-07-09T14:09:03;27.50;1.00
5457;DHT22;2751;49.802;9.944;2022-07-09T14:11:31;27.30;1.00
5457;DHT22;2751;49.802;9.944;2022-07-09T14:13:59;27.60;1.00
5457;DHT22;2751;49.802;9.944;2022-07-09T14:16:26;28.40;1.00
5457;DHT22;2751;49.802;9.944;2022-07-09T14:18:53;28.90;1.00
5457;DHT22;2751;49.802;9.944;2022-07-09T14:21:21;29.60;1.00
5457;DHT22;2751;49.802;9.944;2022-07-09T14:23:48;29.50;1.00
5457;DHT22;2751;49.802;9.944;2022-07-09T14:26:15;29.30;1.00
5457;DHT22;2751;49.802;9.944;2022-07-09T14:28:43;29.20;1.00
5457;DHT22;2751;49.802;9.944;2022-07-09T14:31:10;29.70;1.00
5457;DHT22;2751;49.802;9.944;2022-07-09T14:33:37;30.40;1.00
5457;DHT22;2751;49.802;9.944;2022-07-09T14:36:04;31.40;1.00
5457;DHT22;2751;49.802;9.944;2022-07-09T14:38:32;32.80;1.00
5457;DHT22;2751;49.802;9.944;2022-07-09T14:40:59;31.80;1.00
5457;DHT22;2751;49.802;9.944;2022-07-09T14:43:26;32.70;1.00
5457;DHT22;2751;49.802;9.944;2022-07-09T14:45:54;32.40;1.00
5457;DHT22;2751;49.802;9.944;2022-07-09T14:48:21;31.80;1.00
5457;DHT22;2751;49.802;9.944;2022-07-09T14:50:48;32.40;1.00
5457;DHT22;2751;49.802;9.944;2022-07-09T14:53:15;31.80;1.00
5457;DHT22;2751;49.802;9.944;2022-07-09T14:55:42;31.70;1.00
5457;DHT22;2751;49.802;9.944;2022-07-09T14:58:10;32.10;1.00
5457;DHT22;2751;49.802;9.944;2022-07-09T15:00:37;32.30;1.00
5457;DHT22;2751;49.802;9.944;2022-07-09T15:03:06;31.60;1.00
5457;DHT22;2751;49.802;9.944;2022-07-09T15:05:35;32.50;1.00
5457;DHT22;2751;49.802;9.944;2022-07-09T15:08:02;32.90;1.00
5457;DHT22;2751;49.802;9.944;2022-07-09T15:10:29;31.50;1.00
5457;DHT22;2751;49.802;9.944;2022-07-09T15:12:56;31.00;1.00
5457;DHT22;2751;49.802;9.944;2022-07-09T15:15:23;29.50;1.00
5457;DHT22;2751;49.802;9.944;2022-07-09T15:17:50;28.80;1.00
5457;DHT22;2751;49.802;9.944;2022-07-09T15:20:20;28.80;1.00
5457;DHT22;2751;49.802;9.944;2022-07-09T15:22:47;28.30;1.00
5457;DHT22;2751;49.802;9.944;2022-07-09T15:25:14;28.00;1.00
5457;DHT22;2751;49.802;9.944;2022-07-09T15:27:41;27.30;99.90
5457;DHT22;2751;49.802;9.944;2022-07-09T15:30:09;27.20;99.90
5457;DHT22;2751;49.802;9.944;2022-07-09T15:32:36;27.00;99.90
5457;DHT22;2751;49.802;9.944;2022-07-09T15:35:04;26.90;1.00
5457;DHT22;2751;49.802;9.944;2022-07-09T15:37:34;26.80;99.90
5457;DHT22;2751;49.802;9.944;2022-07-09T15:40:01;26.60;99.90
5457;DHT22;2751;49.802;9.944;2022-07-09T15:42:28;26.20;99.90
5457;DHT22;2751;49.802;9.944;2022-07-09T15:44:55;26.10;99.90
5457;DHT22;2751;49.802;9.944;2022-07-09T15:47:22;25.90;99.90
5457;DHT22;2751;49.802;9.944;2022-07-09T15:49:49;25.80;99.90
5457;DHT22;2751;49.802;9.944;2022-07-09T15:52:17;25.70;99.90
5457;DHT22;2751;49.802;9.944;2022-07-09T15:54:45;25.60;99.90
5457;DHT22;2751;49.802;9.944;2022-07-09T15:57:12;25.50;99.90
5457;DHT22;2751;49.802;9.944;2022-07-09T15:59:39;25.50;99.90
5457;DHT22;2751;49.802;9.944;2022-07-09T16:02:07;25.70;99.90
5457;DHT22;2751;49.802;9.944;2022-07-09T16:04:34;26.00;99.90
5457;DHT22;2751;49.802;9.944;2022-07-09T16:07:01;26.00;1.00
5457;DHT22;2751;49.802;9.944;2022-07-09T16:09:27;26.40;99.90
5457;DHT22;2751;49.802;9.944;2022-07-09T16:11:56;27.20;99.90